WetterOnline ( https://www.wetteronline.de )

Wetter aktuell Kappeln

Aktuelles Wetter: Schönhagen (Ostseebad) (2m)

6-stündlich | Neueste Meldungen
Ortszeit Temperatur Wetter
So, 17.11. 13:00 5.5° C wolkig
So, 17.11. 7:00 2.9° C wolkenlos
So, 17.11. 1:00 4.9° C bedeckt
Sa, 16.11. 19:00 6.9° C leichter Regen
Sa, 16.11. 13:00 8.7° C leichter Regen
Sa, 16.11. 7:00 9.2° C bewölkt
Sa, 16.11. 1:00 9.1° C bedeckt
Fr, 15.11. 19:00 9.1° C bedeckt
Ortszeit Temperatur Wetter
So, 17.11. 13:00 5.5° C wolkig
So, 17.11. 12:50 5.5° C bewölkt
So, 17.11. 12:40 5.3° C bewölkt
So, 17.11. 12:30 5.1° C wolkig
So, 17.11. 12:20 5.1° C wolkig
So, 17.11. 12:10 5.1° C wolkig
So, 17.11. 12:00 5.1° C leicht bewölkt
So, 17.11. 11:30 4.6° C fast wolkenlos
So, 17.11. 11:00 4.1° C leicht bewölkt
So, 17.11. 10:30 3.6° C leicht bewölkt
So, 17.11. 10:00 3.2° C wolkenlos
Ortszeit Relative Feuchte Sichtweite
So, 17.11. 13:00 80% 22 km
So, 17.11. 7:00 87% 14 km
So, 17.11. 1:00 81% 30 km
Sa, 16.11. 19:00 91% 10 km
Sa, 16.11. 13:00 97% 2.2 km
Sa, 16.11. 7:00 92% 5.0 km
Sa, 16.11. 1:00 89% 9 km
Fr, 15.11. 19:00 87% 16 km
Ortszeit Relative Feuchte Sichtweite
So, 17.11. 13:00 80% 22 km
So, 17.11. 12:50 80% -
So, 17.11. 12:40 79% -
So, 17.11. 12:30 80% 24 km
So, 17.11. 12:20 80% -
So, 17.11. 12:10 83% -
So, 17.11. 12:00 80% 20 km
So, 17.11. 11:30 82% 20 km
So, 17.11. 11:00 86% 15 km
So, 17.11. 10:30 87% 16 km
So, 17.11. 10:00 91% 15 km
Ortszeit Niederschlagsmenge Niederschlagsart
So, 17.11. 13:00 0.0 l/m2 in 6 Std. -
So, 17.11. 7:00 0.7 l/m2 in 12 Std. -
So, 17.11. 1:00 0.7 l/m2 in 6 Std. Regen
Sa, 16.11. 19:00 9 l/m2 in 12 Std. Regen
Sa, 16.11. 13:00 0.3 l/m2 in 6 Std. Regen
Sa, 16.11. 7:00 0.1 l/m2 in 12 Std. -
Sa, 16.11. 1:00 0.1 l/m2 in 6 Std. Sprühregen
Fr, 15.11. 19:00 0.0 l/m2 in 12 Std. -
Ortszeit Niederschlagsmenge Niederschlagsart
So, 17.11. 13:00 0.0 l/m2 in 1 Std. -
So, 17.11. 12:50 keine Meldung -
So, 17.11. 12:40 keine Meldung -
So, 17.11. 12:30 0.0 l/m2 in 1 Std. -
So, 17.11. 12:20 keine Meldung -
So, 17.11. 12:10 keine Meldung -
So, 17.11. 12:00 0.0 l/m2 in 1 Std. -
So, 17.11. 11:30 0.0 l/m2 in 1 Std. -
So, 17.11. 11:00 0.0 l/m2 in 1 Std. -
So, 17.11. 10:30 0.0 l/m2 in 1 Std. -
So, 17.11. 10:00 0.0 l/m2 in 1 Std. -
Ortszeit Stärke Spitze Richtung
km/h Bft. km/h Grad Sektor
So, 17.11. 13:00 9 2 24 200° S
So, 17.11. 7:00 18 3 40 210° SW
So, 17.11. 1:00 26 4 57 230° SW
Sa, 16.11. 19:00 37 5 54 230° SW
Sa, 16.11. 13:00 7 2 11 260° W
Sa, 16.11. 7:00 11 2 24 100° O
Sa, 16.11. 1:00 18 3 43 110° O
Fr, 15.11. 19:00 37 5 65 110° O
Ortszeit Stärke Spitze Richtung
km/h Bft. km/h Grad Sektor
So, 17.11. 13:00 9 2 22 200° S
So, 17.11. 12:50 9 2 - 200° S
So, 17.11. 12:40 9 2 - 200° S
So, 17.11. 12:30 11 2 22 190° S
So, 17.11. 12:20 11 2 - 190° S
So, 17.11. 12:10 14 3 - 180° S
So, 17.11. 12:00 9 2 20 180° S
So, 17.11. 11:30 11 2 20 200° S
So, 17.11. 11:00 14 3 22 180° S
So, 17.11. 10:30 11 2 18 170° S
So, 17.11. 10:00 7 2 22 180° S
Ortszeit Untergrenze Bedeckung Gattung
total tief tief mittel hoch
So, 17.11. 13:00 6300 m 8/8 7/8 - - -
So, 17.11. 7:00 - 0/8 0/8 - - -
So, 17.11. 1:00 6600 m 8/8 8/8 - - -
Sa, 16.11. 19:00 300 m 8/8 8/8 - - -
Sa, 16.11. 13:00 30 m 7/8 7/8 - - -
Sa, 16.11. 7:00 240 m 7/8 7/8 - - -
Sa, 16.11. 1:00 330 m 8/8 8/8 - - -
Fr, 15.11. 19:00 570 m 8/8 8/8 - - -
Ortszeit Bedeckungsgrad in Achtel und Wolkenuntergrenze
So, 17.11. 13:00 7(6300m) 7(6900m) 8(8700m)
So, 17.11. 12:50 7(6300m) 7(6900m) 8(8700m)
So, 17.11. 12:40 5(6300m) 7(8700m) 8(9000m)
So, 17.11. 12:30 3(8700m) 5(9000m) 7(10500m)
So, 17.11. 12:20 3(8700m) 5(9000m) 7(10500m)
So, 17.11. 12:10 3(8400m) 4(9000m) 7(10500m)
So, 17.11. 12:00 6(8400m) 7(10500m) 7(10500m)
So, 17.11. 11:30 1(9000m) 4(10500m)
So, 17.11. 11:00 2(8700m) 4(9000m)
So, 17.11. 10:30 2(8700m) 3(9000m)
So, 17.11. 10:00 keine Wolken
Ortszeit Luftdruck NN (hPa) Tendenz (hPa in 3 Std.)
So, 17.11. 13:00 1015 0,0
So, 17.11. 7:00 1013 + 1,3
So, 17.11. 1:00 1009 + 1,7
Sa, 16.11. 19:00 1004 + 2,6
Sa, 16.11. 13:00 1001 - 1,4
Sa, 16.11. 7:00 1003 - 1,4
Sa, 16.11. 1:00 1006 - 0,7
Fr, 15.11. 19:00 1006 - 0,7
Ortszeit Luftdruck NN (hPa) Tendenz (hPa in 3 Std.)
So, 17.11. 13:00 1015 0,0
So, 17.11. 12:50 1015 keine Meldung
So, 17.11. 12:40 1015 keine Meldung
So, 17.11. 12:30 1015 + 0,4
So, 17.11. 12:20 1015 keine Meldung
So, 17.11. 12:10 1016 keine Meldung
So, 17.11. 12:00 1016 + 0,8
So, 17.11. 11:30 1016 + 1,0
So, 17.11. 11:00 1016 + 1,4
So, 17.11. 10:30 1016 + 2,2
So, 17.11. 10:00 1015 + 2,3
Ortszeit Schneehöhe (cm)
So, 17.11. 13:00 0
So, 17.11. 7:00 0
So, 17.11. 1:00 0
Sa, 16.11. 19:00 0
Sa, 16.11. 13:00 0
Sa, 16.11. 7:00 0
Sa, 16.11. 1:00 0
Fr, 15.11. 19:00 0
Ortszeit Schneehöhe (cm)
So, 17.11. 13:00 0
So, 17.11. 12:50 0
So, 17.11. 12:40 0
So, 17.11. 12:30 0
So, 17.11. 12:20 0
So, 17.11. 12:10 0
So, 17.11. 12:00 0
So, 17.11. 11:30 0
So, 17.11. 11:00 0
So, 17.11. 10:30 0
So, 17.11. 10:00 0
Link zu dieser Seite / Seite empfehlen

Das Wetter in ...